Time;durP1;ratioP1;P1;durP2;ratioP2;P2;SDS_P1;SDS_P2;PMS_P1;PMS_P2;Temp;Humidity;BMP_temperature;BMP_pressure;BME280_temperature;BME280_humidity;BME280_pressure;Samples;Min_cycle;Max_cycle;Signal;HPM_P1;HPM_P2
2022/08/07 00:02:12;;;;;;;;;;;25.30;61.50;;;;;;5040650;28;19925;-53
2022/08/07 00:04:59;;;;;;;;;;;25.30;61.40;;;;;;5045699;28;19936;-56
2022/08/07 00:07:26;;;;;;;;;;;25.30;61.40;;;;;;5050386;28;19932;-53
2022/08/07 00:10:06;;;;;;;;;;;25.30;61.60;;;;;;5044484;28;19929;-53
2022/08/07 00:12:53;;;;;;;;;;;25.20;61.50;;;;;;5039560;28;20400;-55
2022/08/07 00:15:30;;;;;;;;;;;25.20;61.40;;;;;;5045510;28;20304;-54
2022/08/07 00:18:13;;;;;;;;;;;25.20;61.50;;;;;;5040920;28;19925;-54
2022/08/07 00:20:48;;;;;;;;;;;25.20;61.60;;;;;;5050021;28;19928;-55
2022/08/07 00:23:15;;;;;;;;;;;25.20;61.50;;;;;;5044140;28;19936;-56
2022/08/07 00:25:43;;;;;;;;;;;25.10;61.60;;;;;;5055125;28;19967;-50
2022/08/07 00:28:25;;;;;;;;;;;25.10;61.50;;;;;;5054427;28;19929;-55
2022/08/07 00:31:01;;;;;;;;;;;25.20;61.80;;;;;;5044912;28;19929;-53
2022/08/07 00:33:33;;;;;;;;;;;25.20;61.80;;;;;;5043388;28;19935;-52
2022/08/07 00:36:01;;;;;;;;;;;25.20;62.00;;;;;;5037465;28;20359;-59
2022/08/07 00:38:28;;;;;;;;;;;25.20;61.80;;;;;;5042885;28;19933;-58
2022/08/07 00:40:58;;;;;;;;;;;25.30;62.20;;;;;;5047803;28;19929;-56
2022/08/07 00:43:25;;;;;;;;;;;25.30;62.90;;;;;;5041389;28;19929;-56
2022/08/07 00:46:12;;;;;;;;;;;25.30;63.40;;;;;;5046597;28;19924;-53
2022/08/07 00:48:40;;;;;;;;;;;25.40;63.30;;;;;;5043917;28;19928;-56
2022/08/07 00:51:08;;;;;;;;;;;25.40;63.40;;;;;;5040830;28;20408;-55
2022/08/07 00:53:36;;;;;;;;;;;25.40;63.60;;;;;;5045805;28;19933;-54
2022/08/07 00:56:17;;;;;;;;;;;25.50;64.00;;;;;;5051406;28;20499;-51
2022/08/07 00:58:44;;;;;;;;;;;25.50;64.10;;;;;;5036709;28;19925;-54
2022/08/07 01:01:16;;;;;;;;;;;25.50;64.50;;;;;;5037708;28;19971;-55
2022/08/07 01:03:44;;;;;;;;;;;25.50;64.80;;;;;;5040948;28;19925;-58
2022/08/07 01:06:26;;;;;;;;;;;25.50;64.80;;;;;;5038199;28;19932;-59
2022/08/07 01:08:54;;;;;;;;;;;25.60;64.90;;;;;;5047107;28;19932;-58
2022/08/07 01:11:27;;;;;;;;;;;25.60;64.90;;;;;;5037290;28;19940;-56
2022/08/07 01:14:14;;;;;;;;;;;25.60;65.30;;;;;;5035489;28;19933;-58
2022/08/07 01:16:43;;;;;;;;;;;25.60;65.20;;;;;;5037413;28;19929;-57
2022/08/07 01:19:15;;;;;;;;;;;25.60;65.40;;;;;;5046891;28;19929;-57
2022/08/07 01:21:49;;;;;;;;;;;25.50;65.30;;;;;;5041470;28;19929;-53
2022/08/07 01:24:24;;;;;;;;;;;25.60;65.60;;;;;;5051167;28;19933;-59
2022/08/07 01:26:52;;;;;;;;;;;25.50;65.70;;;;;;5052103;28;19929;-56
2022/08/07 01:29:21;;;;;;;;;;;25.50;65.80;;;;;;5036962;28;19933;-57
2022/08/07 01:31:51;;;;;;;;;;;25.60;66.10;;;;;;5069279;28;19925;-55
2022/08/07 01:34:18;;;;;;;;;;;25.60;66.20;;;;;;5048961;28;20349;-55
2022/08/07 01:36:50;;;;;;;;;;;25.50;66.20;;;;;;5057096;28;19952;-54
2022/08/07 01:39:27;;;;;;;;;;;25.60;66.40;;;;;;5046941;28;19929;-53
2022/08/07 01:42:23;;;;;;;;;;;25.60;66.70;;;;;;5061683;28;19929;-59
2022/08/07 01:45:08;;;;;;;;;;;25.60;67.10;;;;;;5041288;28;19940;-54
2022/08/07 01:47:36;;;;;;;;;;;25.60;67.00;;;;;;5040620;28;19928;-51
2022/08/07 01:50:24;;;;;;;;;;;25.70;67.10;;;;;;5054174;28;19929;-54
2022/08/07 01:52:57;;;;;;;;;;;25.60;67.30;;;;;;5066133;28;19942;-55
2022/08/07 01:55:31;;;;;;;;;;;25.70;67.80;;;;;;5039571;28;19937;-57
2022/08/07 01:58:05;;;;;;;;;;;25.70;67.80;;;;;;5053236;28;21512;-58
2022/08/07 02:00:55;;;;;;;;;;;25.70;67.80;;;;;;5028590;28;19937;-55
2022/08/07 02:03:39;;;;;;;;;;;25.70;67.90;;;;;;5039875;28;19929;-56
2022/08/07 02:06:20;;;;;;;;;;;25.70;67.90;;;;;;5044168;28;20412;-53
2022/08/07 02:09:02;;;;;;;;;;;25.70;68.00;;;;;;5038365;28;20423;-53
2022/08/07 02:11:33;;;;;;;;;;;25.60;68.10;;;;;;5056294;28;19932;-59
2022/08/07 02:14:22;;;;;;;;;;;25.60;68.20;;;;;;5043301;28;20483;-55
2022/08/07 02:17:09;;;;;;;;;;;25.70;68.40;;;;;;5042927;28;20406;-58
2022/08/07 02:19:38;;;;;;;;;;;25.60;69.00;;;;;;5043831;28;19929;-59
2022/08/07 02:22:26;;;;;;;;;;;25.70;68.70;;;;;;5045494;28;19951;-60
2022/08/07 02:24:55;;;;;;;;;;;25.70;68.70;;;;;;5046518;28;19928;-57
2022/08/07 02:27:23;;;;;;;;;;;25.60;68.80;;;;;;5047490;28;19939;-55
2022/08/07 02:29:52;;;;;;;;;;;25.70;69.00;;;;;;5044788;28;19933;-53
2022/08/07 02:32:24;;;;;;;;;;;25.70;68.90;;;;;;5066282;28;19929;-60
2022/08/07 02:34:57;;;;;;;;;;;25.70;68.90;;;;;;5060754;28;19936;-56
2022/08/07 02:37:29;;;;;;;;;;;25.70;69.00;;;;;;5056281;28;20203;-58
2022/08/07 02:40:04;;;;;;;;;;;25.70;69.10;;;;;;5071894;28;19936;-55
2022/08/07 02:42:54;;;;;;;;;;;25.70;69.20;;;;;;5045281;28;19940;-51
2022/08/07 02:45:25;;;;;;;;;;;25.60;69.20;;;;;;5061926;28;19929;-58
2022/08/07 02:48:12;;;;;;;;;;;25.60;69.30;;;;;;5047124;28;19933;-59
2022/08/07 02:50:46;;;;;;;;;;;25.60;69.40;;;;;;5056948;28;19929;-57
2022/08/07 02:53:16;;;;;;;;;;;25.60;69.50;;;;;;5051281;28;19929;-56
2022/08/07 02:55:47;;;;;;;;;;;25.60;69.60;;;;;;5053642;28;19928;-56
2022/08/07 02:58:34;;;;;;;;;;;25.60;69.70;;;;;;5037205;28;19929;-59
2022/08/07 03:01:03;;;;;;;;;;;25.60;69.80;;;;;;5028378;28;20353;-54
2022/08/07 03:03:43;;;;;;;;;;;25.60;69.90;;;;;;5050762;28;20304;-53
2022/08/07 03:06:20;;;;;;;;;;;25.60;70.00;;;;;;5066830;28;19940;-56
2022/08/07 03:09:04;;;;;;;;;;;25.60;70.10;;;;;;5044348;28;20296;-52
2022/08/07 03:11:32;;;;;;;;;;;25.60;70.10;;;;;;5048982;28;19932;-55
2022/08/07 03:14:07;;;;;;;;;;;25.60;70.20;;;;;;5044654;28;19950;-53
2022/08/07 03:16:34;;;;;;;;;;;25.60;70.40;;;;;;5039572;28;19929;-55
2022/08/07 03:19:05;;;;;;;;;;;25.60;70.30;;;;;;5056907;28;19924;-54
2022/08/07 03:21:35;;;;;;;;;;;25.60;70.40;;;;;;5054167;28;20387;-55
2022/08/07 03:24:04;;;;;;;;;;;25.60;70.50;;;;;;5047726;28;20297;-58
2022/08/07 03:26:52;;;;;;;;;;;25.60;70.50;;;;;;5051058;28;19976;-61
2022/08/07 03:29:30;;;;;;;;;;;25.60;70.60;;;;;;5055297;28;19933;-55
2022/08/07 03:32:02;;;;;;;;;;;25.60;70.90;;;;;;5055625;28;19924;-54
2022/08/07 03:34:30;;;;;;;;;;;25.60;71.00;;;;;;5049087;28;20308;-58
2022/08/07 03:37:06;;;;;;;;;;;25.70;70.90;;;;;;5042721;28;19924;-55
2022/08/07 03:39:41;;;;;;;;;;;25.60;70.90;;;;;;5045230;28;20278;-54
2022/08/07 03:42:26;;;;;;;;;;;25.60;70.90;;;;;;5058334;28;19936;-55
2022/08/07 03:44:54;;;;;;;;;;;25.60;71.00;;;;;;5043834;28;20330;-57
2022/08/07 03:47:26;;;;;;;;;;;25.60;71.10;;;;;;5046603;28;20388;-56
2022/08/07 03:49:57;;;;;;;;;;;25.60;71.10;;;;;;5053792;28;19935;-56
2022/08/07 03:52:27;;;;;;;;;;;25.60;71.20;;;;;;5051690;28;19952;-58
2022/08/07 03:54:58;;;;;;;;;;;25.60;71.20;;;;;;5043107;28;19925;-54
2022/08/07 03:57:36;;;;;;;;;;;25.60;71.30;;;;;;5063798;28;19929;-57
2022/08/07 04:00:27;;;;;;;;;;;25.60;71.30;;;;;;5049369;28;19933;-55
2022/08/07 04:02:57;;;;;;;;;;;25.60;71.30;;;;;;5044516;28;19928;-53
2022/08/07 04:05:29;;;;;;;;;;;25.60;71.40;;;;;;5049964;28;20002;-56
2022/08/07 04:08:16;;;;;;;;;;;25.60;71.40;;;;;;5041072;28;19929;-57
2022/08/07 04:10:48;;;;;;;;;;;25.60;71.60;;;;;;5049239;28;19932;-58
2022/08/07 04:13:36;;;;;;;;;;;25.60;71.60;;;;;;5034035;28;19925;-54
2022/08/07 04:16:24;;;;;;;;;;;25.60;71.70;;;;;;5045333;28;19929;-52
2022/08/07 04:19:01;;;;;;;;;;;25.60;71.70;;;;;;5057294;28;19936;-58
2022/08/07 04:21:39;;;;;;;;;;;25.60;71.80;;;;;;5048199;28;19935;-54
2022/08/07 04:24:25;;;;;;;;;;;25.60;71.80;;;;;;5053419;28;19933;-53
2022/08/07 04:27:03;;;;;;;;;;;25.60;71.80;;;;;;5049207;28;19936;-56
2022/08/07 04:29:30;;;;;;;;;;;25.60;71.90;;;;;;5050532;28;19932;-58
2022/08/07 04:32:17;;;;;;;;;;;25.60;72.00;;;;;;5041117;28;19929;-56
2022/08/07 04:35:04;;;;;;;;;;;25.60;72.00;;;;;;5043655;28;19932;-53
2022/08/07 04:37:34;;;;;;;;;;;25.60;72.10;;;;;;5053925;28;19928;-59
2022/08/07 04:40:23;;;;;;;;;;;25.60;72.30;;;;;;5050482;28;19928;-57
2022/08/07 04:42:56;;;;;;;;;;;25.50;72.20;;;;;;5036893;28;19936;-56
2022/08/07 04:45:36;;;;;;;;;;;25.60;72.40;;;;;;5049566;28;20309;-57
2022/08/07 04:48:42;;;;;;;;;;;25.60;72.40;;;;;;5046616;28;20400;-58
2022/08/07 04:51:20;;;;;;;;;;;25.60;72.50;;;;;;5056199;28;19936;-50
2022/08/07 04:54:02;;;;;;;;;;;25.60;72.50;;;;;;5068542;28;19929;-56
2022/08/07 04:56:38;;;;;;;;;;;25.60;72.60;;;;;;5055444;28;19929;-56
2022/08/07 04:59:42;;;;;;;;;;;25.60;72.70;;;;;;5054773;28;19929;-56
2022/08/07 05:02:47;;;;;;;;;;;25.70;73.40;;;;;;5051339;28;19932;-56
2022/08/07 05:05:22;;;;;;;;;;;25.80;73.70;;;;;;5046945;28;19936;-54
2022/08/07 05:08:15;;;;;;;;;;;25.80;73.90;;;;;;5044719;28;19925;-55
2022/08/07 05:10:45;;;;;;;;;;;25.80;73.50;;;;;;5056722;28;19932;-55
2022/08/07 05:13:16;;;;;;;;;;;25.70;72.80;;;;;;5061573;28;19936;-56
2022/08/07 05:16:08;;;;;;;;;;;25.60;71.90;;;;;;5045253;28;19929;-51
2022/08/07 05:18:42;;;;;;;;;;;25.50;70.80;;;;;;5038310;28;20300;-57
2022/08/07 05:21:11;;;;;;;;;;;25.50;69.60;;;;;;5046737;28;20318;-53
2022/08/07 05:23:46;;;;;;;;;;;25.50;68.90;;;;;;5076196;28;19928;-59
2022/08/07 05:26:17;;;;;;;;;;;25.40;68.50;;;;;;5046172;28;20380;-55
2022/08/07 05:28:57;;;;;;;;;;;25.40;67.00;;;;;;5045670;28;20238;-58
2022/08/07 05:31:32;;;;;;;;;;;25.30;66.10;;;;;;5044792;28;20423;-58
2022/08/07 05:34:05;;;;;;;;;;;25.10;63.30;;;;;;5046678;28;19939;-55
2022/08/07 05:36:45;;;;;;;;;;;24.70;63.70;;;;;;5035017;28;20327;-57
2022/08/07 05:39:25;;;;;;;;;;;24.50;64.30;;;;;;5046596;28;19925;-57
2022/08/07 05:42:13;;;;;;;;;;;24.30;64.50;;;;;;5042014;28;20419;-57
2022/08/07 05:45:01;;;;;;;;;;;24.20;64.50;;;;;;5035829;28;19932;-57
2022/08/07 05:47:50;;;;;;;;;;;24.10;64.50;;;;;;5037333;28;19929;-55
2022/08/07 05:50:34;;;;;;;;;;;24.00;64.50;;;;;;5044763;28;19928;-53
2022/08/07 05:53:05;;;;;;;;;;;23.90;64.90;;;;;;5056803;28;19925;-56
2022/08/07 05:55:54;;;;;;;;;;;23.70;64.70;;;;;;5040825;28;19933;-54
2022/08/07 05:58:34;;;;;;;;;;;23.60;65.00;;;;;;5053717;28;19936;-60
2022/08/07 06:01:05;;;;;;;;;;;23.50;65.10;;;;;;5049404;28;19936;-61
2022/08/07 06:03:40;;;;;;;;;;;23.50;65.20;;;;;;5055774;28;19929;-58
2022/08/07 06:06:32;;;;;;;;;;;23.60;65.70;;;;;;5042891;28;20576;-60
2022/08/07 06:09:03;;;;;;;;;;;23.60;65.70;;;;;;5042235;28;19939;-57
2022/08/07 06:11:36;;;;;;;;;;;23.80;65.90;;;;;;5071942;28;19971;-60
2022/08/07 06:14:04;;;;;;;;;;;24.00;65.90;;;;;;5041681;28;19932;-59
2022/08/07 06:16:50;;;;;;;;;;;24.10;65.90;;;;;;5042024;28;19936;-60
2022/08/07 06:19:28;;;;;;;;;;;24.20;65.40;;;;;;5055496;28;22133;-58
2022/08/07 06:22:17;;;;;;;;;;;24.20;65.50;;;;;;5056556;28;20513;-58
2022/08/07 06:25:05;;;;;;;;;;;24.30;64.80;;;;;;5053713;28;19995;-60
2022/08/07 06:27:37;;;;;;;;;;;24.30;64.50;;;;;;5050923;28;19952;-62
2022/08/07 06:30:24;;;;;;;;;;;24.30;64.20;;;;;;5044160;28;19929;-63
2022/08/07 06:33:05;;;;;;;;;;;24.40;67.00;;;;;;5039938;28;19955;-63
2022/08/07 06:35:43;;;;;;;;;;;24.50;67.30;;;;;;5050884;28;20325;-66
2022/08/07 06:38:31;;;;;;;;;;;24.50;66.30;;;;;;5057012;28;19928;-62
2022/08/07 06:40:59;;;;;;;;;;;24.50;66.00;;;;;;5037522;28;19929;-62
2022/08/07 06:43:28;;;;;;;;;;;24.50;66.90;;;;;;5047875;28;19960;-65
2022/08/07 06:46:11;;;;;;;;;;;24.50;66.90;;;;;;5040300;28;19928;-63
2022/08/07 06:48:40;;;;;;;;;;;24.60;67.00;;;;;;5040931;28;19932;-64
2022/08/07 06:51:14;;;;;;;;;;;24.60;67.30;;;;;;5046539;28;20311;-64
2022/08/07 06:54:02;;;;;;;;;;;24.70;67.20;;;;;;5038014;28;19936;-63
2022/08/07 06:56:50;;;;;;;;;;;24.60;66.10;;;;;;5039717;28;19928;-64
2022/08/07 06:59:26;;;;;;;;;;;24.60;67.30;;;;;;5044849;28;19929;-64
2022/08/07 07:02:16;;;;;;;;;;;24.70;68.30;;;;;;5052024;28;19933;-66
2022/08/07 07:05:04;;;;;;;;;;;24.70;68.20;;;;;;5049649;28;19928;-65
2022/08/07 07:07:32;;;;;;;;;;;24.80;68.30;;;;;;5044946;28;19929;-65
2022/08/07 07:10:26;;;;;;;;;;;24.80;67.50;;;;;;5043923;28;20423;-63
2022/08/07 07:12:55;;;;;;;;;;;24.80;67.90;;;;;;5049202;28;19929;-68
2022/08/07 07:15:26;;;;;;;;;;;24.90;68.60;;;;;;5049670;28;20008;-63
2022/08/07 07:18:15;;;;;;;;;;;24.90;69.60;;;;;;5049848;28;19940;-65
2022/08/07 07:21:09;;;;;;;;;;;25.00;69.70;;;;;;5046435;28;20400;-57
2022/08/07 07:23:39;;;;;;;;;;;25.00;68.90;;;;;;5047329;28;19929;-59
2022/08/07 07:26:29;;;;;;;;;;;24.90;68.60;;;;;;5044677;28;19925;-63
2022/08/07 07:29:07;;;;;;;;;;;24.90;67.80;;;;;;5052590;28;20511;-61
2022/08/07 07:31:55;;;;;;;;;;;24.90;68.60;;;;;;5043863;28;20319;-62
2022/08/07 07:34:25;;;;;;;;;;;24.90;67.90;;;;;;5036779;28;19941;-62
2022/08/07 07:36:59;;;;;;;;;;;25.00;68.00;;;;;;5056272;28;20440;-60
2022/08/07 07:39:47;;;;;;;;;;;25.00;67.90;;;;;;5043449;28;19952;-58
2022/08/07 07:42:23;;;;;;;;;;;24.90;67.60;;;;;;5043384;28;20324;-61
2022/08/07 07:45:00;;;;;;;;;;;24.90;68.20;;;;;;5047532;28;19939;-61
2022/08/07 07:47:29;;;;;;;;;;;25.00;69.40;;;;;;5049257;28;20222;-60
2022/08/07 07:50:10;;;;;;;;;;;25.00;68.20;;;;;;5044851;28;20336;-57
2022/08/07 07:52:57;;;;;;;;;;;25.00;66.70;;;;;;5054294;28;20407;-58
2022/08/07 07:55:27;;;;;;;;;;;25.00;66.70;;;;;;5048613;28;19925;-59
2022/08/07 07:58:12;;;;;;;;;;;25.10;66.90;;;;;;5052914;28;20375;-54
2022/08/07 08:00:40;;;;;;;;;;;25.10;67.40;;;;;;5037644;28;19944;-56
2022/08/07 08:03:13;;;;;;;;;;;25.10;67.40;;;;;;5047841;28;19929;-56
2022/08/07 08:05:43;;;;;;;;;;;25.10;67.40;;;;;;5028028;28;20412;-56
2022/08/07 08:08:26;;;;;;;;;;;25.20;67.70;;;;;;5072097;22;19925;-59
2022/08/07 08:11:06;;;;;;;;;;;25.30;67.50;;;;;;5049768;28;19940;-61
2022/08/07 08:13:35;;;;;;;;;;;25.30;67.70;;;;;;5031424;28;20035;-61
2022/08/07 08:16:35;;;;;;;;;;;25.30;67.20;;;;;;5049510;28;19929;-60
2022/08/07 08:19:05;;;;;;;;;;;25.20;67.30;;;;;;5052894;28;20439;-58
2022/08/07 08:27:52;;;;;;;;;;;25.30;67.60;;;;;;5050418;28;20400;-60
2022/08/07 08:30:28;;;;;;;;;;;25.40;68.00;;;;;;5035587;28;19933;-61
2022/08/07 08:33:00;;;;;;;;;;;25.40;68.30;;;;;;5049393;28;19948;-61
2022/08/07 08:35:30;;;;;;;;;;;25.40;68.30;;;;;;5047154;28;19925;-60
2022/08/07 08:38:14;;;;;;;;;;;25.40;68.40;;;;;;5052828;28;20300;-61
2022/08/07 08:40:53;;;;;;;;;;;25.40;68.90;;;;;;5054802;28;19924;-59
2022/08/07 08:43:30;;;;;;;;;;;25.50;68.80;;;;;;5052049;28;20559;-60
2022/08/07 08:46:13;;;;;;;;;;;25.40;69.20;;;;;;5053945;28;19924;-58
2022/08/07 08:48:46;;;;;;;;;;;25.40;69.20;;;;;;5041908;28;20392;-57
2022/08/07 08:51:29;;;;;;;;;;;25.40;69.00;;;;;;5059986;28;20423;-61
2022/08/07 08:54:23;;;;;;;;;;;25.40;69.00;;;;;;5052592;28;19924;-59
2022/08/07 08:56:52;;;;;;;;;;;25.40;69.30;;;;;;5042460;28;19929;-54
2022/08/07 08:59:31;;;;;;;;;;;25.40;69.40;;;;;;5029081;28;19992;-58
2022/08/07 09:02:29;;;;;;;;;;;25.40;69.60;;;;;;5057760;28;20295;-58
2022/08/07 09:05:09;;;;;;;;;;;25.50;70.00;;;;;;5050676;28;22068;-60
2022/08/07 09:07:48;;;;;;;;;;;25.50;70.10;;;;;;5048177;28;19933;-59
2022/08/07 09:10:28;;;;;;;;;;;25.50;70.30;;;;;;5056314;28;19925;-59
2022/08/07 09:13:05;;;;;;;;;;;25.50;70.30;;;;;;5062089;28;19936;-61
2022/08/07 09:15:48;;;;;;;;;;;25.50;70.40;;;;;;5051178;28;19925;-59
2022/08/07 09:18:54;;;;;;;;;;;25.50;70.30;;;;;;5044667;28;20423;-60
2022/08/07 09:21:32;;;;;;;;;;;25.50;70.30;;;;;;5052172;28;20355;-60
2022/08/07 09:24:19;;;;;;;;;;;25.50;70.50;;;;;;5041134;28;19940;-59
2022/08/07 09:27:00;;;;;;;;;;;25.50;70.50;;;;;;5053070;28;19947;-61
2022/08/07 09:29:44;;;;;;;;;;;25.50;70.60;;;;;;5042878;28;20402;-59
2022/08/07 09:32:50;;;;;;;;;;;25.50;70.60;;;;;;5051655;28;19933;-60
2022/08/07 09:35:33;;;;;;;;;;;25.50;70.60;;;;;;5043783;28;19945;-61
2022/08/07 09:38:28;;;;;;;;;;;25.50;70.80;;;;;;5045266;28;20428;-61
2022/08/07 09:41:30;;;;;;;;;;;25.60;70.80;;;;;;5049653;28;19935;-62
2022/08/07 09:44:13;;;;;;;;;;;25.60;70.60;;;;;;4968933;28;20045;-61
2022/08/07 09:47:13;;;;;;;;;;;25.70;70.70;;;;;;5042848;28;20308;-61
2022/08/07 09:50:00;;;;;;;;;;;25.70;70.90;;;;;;5042397;28;20296;-59
2022/08/07 09:52:59;;;;;;;;;;;25.60;71.00;;;;;;5038392;28;20281;-59
2022/08/07 09:55:35;;;;;;;;;;;25.70;70.70;;;;;;5043877;28;20392;-60
2022/08/07 09:58:25;;;;;;;;;;;25.70;71.00;;;;;;5053319;28;19932;-61
2022/08/07 10:01:25;;;;;;;;;;;25.70;71.30;;;;;;5055490;28;19929;-61
2022/08/07 10:04:31;;;;;;;;;;;25.70;71.60;;;;;;5048167;28;20427;-59
2022/08/07 10:07:12;;;;;;;;;;;25.70;71.70;;;;;;5040326;28;19932;-58
2022/08/07 10:10:16;;;;;;;;;;;25.70;72.10;;;;;;5038986;28;19932;-60
2022/08/07 10:13:24;;;;;;;;;;;25.80;72.10;;;;;;5043090;28;19937;-56
2022/08/07 10:16:20;;;;;;;;;;;25.80;72.20;;;;;;4965232;28;20070;-57
2022/08/07 10:19:05;;;;;;;;;;;25.80;72.20;;;;;;5041694;28;19936;-55
2022/08/07 10:21:46;;;;;;;;;;;25.80;72.20;;;;;;5040915;28;19929;-55
2022/08/07 10:24:37;;;;;;;;;;;25.80;72.30;;;;;;5037538;28;20533;-56
2022/08/07 10:27:18;;;;;;;;;;;25.80;72.30;;;;;;5044439;28;19929;-57
2022/08/07 10:29:55;;;;;;;;;;;25.80;72.40;;;;;;5047975;28;19928;-56
2022/08/07 10:32:41;;;;;;;;;;;25.80;72.50;;;;;;5031187;28;19940;-59
2022/08/07 10:35:20;;;;;;;;;;;25.90;72.50;;;;;;5040077;28;19935;-57
2022/08/07 10:38:10;;;;;;;;;;;25.90;72.50;;;;;;5048426;28;19928;-57
2022/08/07 10:41:16;;;;;;;;;;;25.80;72.70;;;;;;5035274;28;20263;-55
2022/08/07 10:44:26;;;;;;;;;;;25.80;72.80;;;;;;5049800;28;19940;-56
2022/08/07 10:47:05;;;;;;;;;;;25.90;72.90;;;;;;5051812;28;20396;-59
2022/08/07 10:49:45;;;;;;;;;;;25.90;73.50;;;;;;5045821;28;19928;-58
2022/08/07 10:52:40;;;;;;;;;;;25.90;73.60;;;;;;5043210;28;19929;-58
2022/08/07 10:55:23;;;;;;;;;;;25.90;73.50;;;;;;5043394;28;19932;-56
2022/08/07 10:58:04;;;;;;;;;;;25.90;73.60;;;;;;5054807;28;19929;-56
2022/08/07 11:00:35;;;;;;;;;;;25.90;73.60;;;;;;5050433;28;19932;-57
2022/08/07 11:03:22;;;;;;;;;;;25.80;73.50;;;;;;5049277;28;19928;-59
2022/08/07 11:05:57;;;;;;;;;;;25.80;73.00;;;;;;5025658;28;19933;-60
2022/08/07 11:08:33;;;;;;;;;;;25.90;72.90;;;;;;5050232;28;20243;-59
2022/08/07 11:11:04;;;;;;;;;;;25.90;72.70;;;;;;5027085;28;19925;-57
2022/08/07 11:13:31;;;;;;;;;;;25.80;72.70;;;;;;5044740;28;19929;-58
2022/08/07 11:16:28;;;;;;;;;;;25.80;72.50;;;;;;5047148;28;19928;-58
2022/08/07 11:19:10;;;;;;;;;;;25.80;72.10;;;;;;5043172;28;19928;-61
2022/08/07 11:21:45;;;;;;;;;;;25.80;71.90;;;;;;5051273;28;19928;-64
2022/08/07 11:24:21;;;;;;;;;;;25.90;73.10;;;;;;5047256;28;19955;-60
2022/08/07 11:26:54;;;;;;;;;;;25.90;73.30;;;;;;5042938;28;19929;-60
2022/08/07 11:29:28;;;;;;;;;;;25.90;73.50;;;;;;5047905;28;19940;-61
2022/08/07 11:32:21;;;;;;;;;;;25.90;73.40;;;;;;5037150;28;19925;-61
2022/08/07 11:34:54;;;;;;;;;;;26.00;73.70;;;;;;5045271;28;20465;-60
2022/08/07 11:37:44;;;;;;;;;;;26.00;73.90;;;;;;5050618;28;19935;-60
2022/08/07 11:40:56;;;;;;;;;;;26.00;74.20;;;;;;5050514;28;20075;-59
2022/08/07 11:43:25;;;;;;;;;;;26.00;73.90;;;;;;5043353;28;19928;-56
2022/08/07 11:46:36;;;;;;;;;;;26.00;74.10;;;;;;5044079;28;19932;-60
2022/08/07 11:49:04;;;;;;;;;;;26.00;74.60;;;;;;5035690;28;20372;-59
2022/08/07 11:51:54;;;;;;;;;;;26.00;76.70;;;;;;5046185;28;19928;-57
2022/08/07 11:54:42;;;;;;;;;;;26.00;78.00;;;;;;5057049;28;19936;-59
2022/08/07 11:57:21;;;;;;;;;;;26.10;78.60;;;;;;5051914;28;19929;-60
2022/08/07 12:00:13;;;;;;;;;;;26.10;82.40;;;;;;5050248;28;19925;-58
2022/08/07 12:02:56;;;;;;;;;;;26.10;84.30;;;;;;5045362;28;19951;-56
2022/08/07 12:05:37;;;;;;;;;;;26.10;82.40;;;;;;5038408;28;19929;-56
2022/08/07 12:08:41;;;;;;;;;;;26.10;82.00;;;;;;5044480;28;19944;-59
2022/08/07 12:11:18;;;;;;;;;;;26.10;81.30;;;;;;5045841;28;19925;-59
2022/08/07 12:13:56;;;;;;;;;;;26.00;80.50;;;;;;5052553;28;19947;-58
2022/08/07 12:16:28;;;;;;;;;;;26.10;80.70;;;;;;5043684;28;19929;-58
2022/08/07 12:19:16;;;;;;;;;;;26.00;80.90;;;;;;5041696;28;19967;-57
2022/08/07 12:21:57;;;;;;;;;;;26.10;81.20;;;;;;5045561;28;19932;-58
2022/08/07 12:28:03;;;;;;;;;;;26.10;80.90;;;;;;5045908;28;19932;-58
2022/08/07 12:30:39;;;;;;;;;;;26.10;80.40;;;;;;5044570;28;19932;-58
2022/08/07 12:33:18;;;;;;;;;;;26.10;80.10;;;;;;5042252;28;20423;-60
2022/08/07 12:35:57;;;;;;;;;;;26.10;79.50;;;;;;5043933;28;19933;-59
2022/08/07 12:38:30;;;;;;;;;;;26.10;79.80;;;;;;5042946;28;19933;-61
2022/08/07 12:41:13;;;;;;;;;;;26.10;79.50;;;;;;5028347;28;20448;-59
2022/08/07 12:43:43;;;;;;;;;;;26.20;79.20;;;;;;5042219;28;19924;-60
2022/08/07 12:47:06;;;;;;;;;;;26.20;78.60;;;;;;5040035;28;19931;-56
2022/08/07 12:49:40;;;;;;;;;;;26.20;78.50;;;;;;4962155;28;19934;-57
2022/08/07 12:52:43;;;;;;;;;;;26.20;78.40;;;;;;5039955;28;19940;-58
2022/08/07 12:55:12;;;;;;;;;;;26.20;78.20;;;;;;5023205;28;19955;-57
2022/08/07 12:57:45;;;;;;;;;;;26.30;77.80;;;;;;5041267;28;20293;-59
2022/08/07 13:00:33;;;;;;;;;;;26.30;77.40;;;;;;5044424;28;19933;-57
2022/08/07 13:03:29;;;;;;;;;;;26.30;77.10;;;;;;5051003;28;19932;-62
2022/08/07 13:06:24;;;;;;;;;;;26.40;77.30;;;;;;5045434;28;19935;-60
2022/08/07 13:09:13;;;;;;;;;;;26.30;77.00;;;;;;5042342;28;19933;-60
2022/08/07 13:12:08;;;;;;;;;;;26.40;76.90;;;;;;5044808;28;19932;-63
2022/08/07 13:15:00;;;;;;;;;;;26.40;76.80;;;;;;5024617;28;19940;-62
2022/08/07 13:17:56;;;;;;;;;;;26.50;77.30;;;;;;5040064;28;19940;-61
2022/08/07 13:20:31;;;;;;;;;;;26.50;77.60;;;;;;4942118;28;19938;-62
2022/08/07 13:23:05;;;;;;;;;;;26.50;77.10;;;;;;5043274;28;19932;-62
2022/08/07 13:25:55;;;;;;;;;;;26.50;76.90;;;;;;5042446;28;20105;-63
2022/08/07 13:28:29;;;;;;;;;;;26.50;76.40;;;;;;5050482;28;20331;-64
2022/08/07 13:31:03;;;;;;;;;;;26.50;76.00;;;;;;5043421;28;19929;-64
2022/08/07 13:33:46;;;;;;;;;;;26.50;75.70;;;;;;5038033;28;19925;-62
2022/08/07 13:36:38;;;;;;;;;;;26.50;75.60;;;;;;5044677;28;19928;-64
2022/08/07 13:39:10;;;;;;;;;;;26.60;75.40;;;;;;5056196;28;20308;-63
2022/08/07 13:41:58;;;;;;;;;;;26.50;75.20;;;;;;5045391;28;20284;-63
2022/08/07 13:44:28;;;;;;;;;;;26.60;75.20;;;;;;5055179;28;19928;-63
2022/08/07 13:47:05;;;;;;;;;;;26.60;75.20;;;;;;5054830;28;19932;-64
2022/08/07 13:49:46;;;;;;;;;;;26.70;75.10;;;;;;5057524;28;19925;-63
2022/08/07 13:52:36;;;;;;;;;;;26.70;75.10;;;;;;5041550;28;20408;-62
2022/08/07 13:55:11;;;;;;;;;;;26.70;75.00;;;;;;5046434;28;19935;-64
2022/08/07 13:57:48;;;;;;;;;;;26.70;74.90;;;;;;5052468;28;20674;-65
2022/08/07 14:00:35;;;;;;;;;;;26.80;74.90;;;;;;5046146;28;19933;-63
2022/08/07 14:03:18;;;;;;;;;;;26.80;74.80;;;;;;5043831;28;19929;-64
2022/08/07 14:06:05;;;;;;;;;;;26.90;74.80;;;;;;5039322;28;19936;-65
2022/08/07 14:08:35;;;;;;;;;;;26.90;74.80;;;;;;5050475;28;19936;-59
2022/08/07 14:11:05;;;;;;;;;;;26.90;74.70;;;;;;5052010;28;19947;-64
2022/08/07 14:13:52;;;;;;;;;;;26.90;74.60;;;;;;5026522;28;19940;-65
2022/08/07 14:16:23;;;;;;;;;;;27.00;74.50;;;;;;5049167;28;20420;-64
2022/08/07 14:18:59;;;;;;;;;;;27.00;74.40;;;;;;5048492;28;19939;-61
2022/08/07 14:21:34;;;;;;;;;;;27.10;74.30;;;;;;5058653;28;19935;-63
2022/08/07 14:24:21;;;;;;;;;;;27.10;74.30;;;;;;5051384;28;19955;-64
2022/08/07 14:26:54;;;;;;;;;;;27.20;74.20;;;;;;5057963;28;19929;-64
2022/08/07 14:29:29;;;;;;;;;;;27.20;74.10;;;;;;5061804;28;19935;-63
2022/08/07 14:32:17;;;;;;;;;;;27.20;74.00;;;;;;5039960;28;19936;-64
2022/08/07 14:34:46;;;;;;;;;;;27.30;74.00;;;;;;5060985;28;19943;-62
2022/08/07 14:37:18;;;;;;;;;;;27.30;73.90;;;;;;5026785;28;19929;-63
2022/08/07 14:40:02;;;;;;;;;;;27.30;73.80;;;;;;5031590;28;19925;-63
2022/08/07 14:42:55;;;;;;;;;;;27.30;73.70;;;;;;5046747;28;20327;-61
2022/08/07 14:45:47;;;;;;;;;;;27.40;73.60;;;;;;5069997;28;20314;-61
2022/08/07 14:48:19;;;;;;;;;;;27.40;72.90;;;;;;5044504;28;19929;-61
2022/08/07 14:50:51;;;;;;;;;;;27.40;71.90;;;;;;5058195;28;19935;-61
2022/08/07 14:53:20;;;;;;;;;;;27.40;71.50;;;;;;5048981;28;19936;-60
2022/08/07 14:56:08;;;;;;;;;;;27.50;71.60;;;;;;5046731;28;20396;-60
2022/08/07 14:58:42;;;;;;;;;;;27.60;72.70;;;;;;5047225;28;19952;-60
2022/08/07 15:01:11;;;;;;;;;;;27.60;72.80;;;;;;5043718;28;19929;-59
2022/08/07 15:04:00;;;;;;;;;;;27.60;72.50;;;;;;5044401;28;19936;-60
2022/08/07 15:06:33;;;;;;;;;;;27.60;73.10;;;;;;5041690;28;19929;-58
2022/08/07 15:09:03;;;;;;;;;;;27.70;73.40;;;;;;5049068;28;19929;-62
2022/08/07 15:11:55;;;;;;;;;;;27.70;73.50;;;;;;5051418;28;19928;-61
2022/08/07 15:15:18;;;;;;;;;;;27.80;73.50;;;;;;5045083;28;20288;-59
2022/08/07 15:18:10;;;;;;;;;;;27.70;72.50;;;;;;4965743;28;19941;-59
2022/08/07 15:20:57;;;;;;;;;;;27.70;72.20;;;;;;5057814;28;19955;-58
2022/08/07 15:23:31;;;;;;;;;;;27.80;72.30;;;;;;5055352;28;19924;-59
2022/08/07 15:26:21;;;;;;;;;;;27.80;72.30;;;;;;5047061;28;19936;-61
2022/08/07 15:28:52;;;;;;;;;;;27.80;72.10;;;;;;5046209;28;20309;-59
2022/08/07 15:31:41;;;;;;;;;;;27.90;71.80;;;;;;5050316;28;19928;-61
2022/08/07 15:34:33;;;;;;;;;;;27.90;71.80;;;;;;5052908;28;20301;-61
2022/08/07 15:37:03;;;;;;;;;;;27.90;71.50;;;;;;5025578;28;19928;-59
2022/08/07 15:39:39;;;;;;;;;;;28.00;71.60;;;;;;5046094;28;19932;-58
2022/08/07 15:42:36;;;;;;;;;;;28.00;71.60;;;;;;5044442;28;19928;-60